sensor_id;sensor_type;location;lat;lon;timestamp;P1;durP1;ratioP1;P2;durP2;ratioP2
76714;SDS011;65644;44.990;20.288;2023-05-07T00:01:01;12.75;;;7.68;;
76714;SDS011;65644;44.990;20.288;2023-05-07T00:03:27;7.78;;;5.90;;
76714;SDS011;65644;44.990;20.288;2023-05-07T00:05:53;10.38;;;6.68;;
76714;SDS011;65644;44.990;20.288;2023-05-07T00:08:20;9.88;;;6.55;;
76714;SDS011;65644;44.990;20.288;2023-05-07T00:10:46;9.45;;;6.75;;
76714;SDS011;65644;44.990;20.288;2023-05-07T00:13:12;11.65;;;6.75;;
76714;SDS011;65644;44.990;20.288;2023-05-07T00:15:39;10.00;;;7.15;;
76714;SDS011;65644;44.990;20.288;2023-05-07T00:18:05;10.25;;;6.80;;
76714;SDS011;65644;44.990;20.288;2023-05-07T00:20:31;11.50;;;7.15;;
76714;SDS011;65644;44.990;20.288;2023-05-07T00:22:57;7.35;;;6.03;;
76714;SDS011;65644;44.990;20.288;2023-05-07T00:25:23;6.93;;;5.65;;
76714;SDS011;65644;44.990;20.288;2023-05-07T00:27:49;9.07;;;6.43;;
76714;SDS011;65644;44.990;20.288;2023-05-07T00:30:15;8.05;;;6.32;;
76714;SDS011;65644;44.990;20.288;2023-05-07T00:32:41;7.85;;;5.93;;
76714;SDS011;65644;44.990;20.288;2023-05-07T00:35:07;6.30;;;5.70;;
76714;SDS011;65644;44.990;20.288;2023-05-07T00:37:33;8.52;;;5.97;;
76714;SDS011;65644;44.990;20.288;2023-05-07T00:39:59;7.40;;;6.38;;
76714;SDS011;65644;44.990;20.288;2023-05-07T00:42:28;7.95;;;6.32;;
76714;SDS011;65644;44.990;20.288;2023-05-07T00:44:54;7.88;;;6.30;;
76714;SDS011;65644;44.990;20.288;2023-05-07T00:47:20;6.75;;;6.05;;
76714;SDS011;65644;44.990;20.288;2023-05-07T00:49:46;9.18;;;6.47;;
76714;SDS011;65644;44.990;20.288;2023-05-07T00:52:16;6.95;;;6.22;;
76714;SDS011;65644;44.990;20.288;2023-05-07T00:54:42;7.30;;;6.57;;
76714;SDS011;65644;44.990;20.288;2023-05-07T00:57:11;10.48;;;5.85;;
76714;SDS011;65644;44.990;20.288;2023-05-07T00:59:37;10.40;;;6.50;;
76714;SDS011;65644;44.990;20.288;2023-05-07T01:02:04;9.75;;;7.07;;
76714;SDS011;65644;44.990;20.288;2023-05-07T01:04:30;10.32;;;5.70;;
76714;SDS011;65644;44.990;20.288;2023-05-07T01:06:56;9.95;;;5.85;;
76714;SDS011;65644;44.990;20.288;2023-05-07T01:09:26;7.07;;;6.32;;
76714;SDS011;65644;44.990;20.288;2023-05-07T01:11:52;12.35;;;6.28;;
76714;SDS011;65644;44.990;20.288;2023-05-07T01:14:19;7.80;;;6.30;;
76714;SDS011;65644;44.990;20.288;2023-05-07T01:16:46;7.65;;;5.97;;
76714;SDS011;65644;44.990;20.288;2023-05-07T01:19:12;6.78;;;6.15;;
76714;SDS011;65644;44.990;20.288;2023-05-07T01:21:42;9.27;;;6.53;;
76714;SDS011;65644;44.990;20.288;2023-05-07T01:24:11;9.52;;;6.00;;
76714;SDS011;65644;44.990;20.288;2023-05-07T01:26:37;8.82;;;6.00;;
76714;SDS011;65644;44.990;20.288;2023-05-07T01:29:03;7.90;;;5.40;;
76714;SDS011;65644;44.990;20.288;2023-05-07T01:31:29;9.50;;;5.68;;
76714;SDS011;65644;44.990;20.288;2023-05-07T01:33:55;14.25;;;6.25;;
76714;SDS011;65644;44.990;20.288;2023-05-07T01:36:22;6.38;;;5.78;;
76714;SDS011;65644;44.990;20.288;2023-05-07T01:38:51;9.95;;;6.18;;
76714;SDS011;65644;44.990;20.288;2023-05-07T01:41:17;6.70;;;5.82;;
76714;SDS011;65644;44.990;20.288;2023-05-07T01:43:44;5.82;;;5.10;;
76714;SDS011;65644;44.990;20.288;2023-05-07T01:46:11;7.82;;;5.28;;
76714;SDS011;65644;44.990;20.288;2023-05-07T01:48:38;6.65;;;5.72;;
76714;SDS011;65644;44.990;20.288;2023-05-07T01:51:04;7.97;;;5.80;;
76714;SDS011;65644;44.990;20.288;2023-05-07T01:53:37;7.32;;;5.40;;
76714;SDS011;65644;44.990;20.288;2023-05-07T01:56:04;8.13;;;6.13;;
76714;SDS011;65644;44.990;20.288;2023-05-07T01:58:30;6.38;;;5.72;;
76714;SDS011;65644;44.990;20.288;2023-05-07T02:00:56;6.90;;;6.00;;
76714;SDS011;65644;44.990;20.288;2023-05-07T02:03:22;6.10;;;5.50;;
76714;SDS011;65644;44.990;20.288;2023-05-07T02:05:48;7.38;;;5.47;;
76714;SDS011;65644;44.990;20.288;2023-05-07T02:08:14;8.18;;;6.07;;
76714;SDS011;65644;44.990;20.288;2023-05-07T02:10:40;7.57;;;5.32;;
76714;SDS011;65644;44.990;20.288;2023-05-07T02:13:06;7.07;;;6.35;;
76714;SDS011;65644;44.990;20.288;2023-05-07T02:15:32;6.57;;;5.60;;
76714;SDS011;65644;44.990;20.288;2023-05-07T02:17:59;7.55;;;5.50;;
76714;SDS011;65644;44.990;20.288;2023-05-07T02:20:25;7.18;;;5.60;;
76714;SDS011;65644;44.990;20.288;2023-05-07T02:22:52;8.68;;;5.70;;
76714;SDS011;65644;44.990;20.288;2023-05-07T02:25:18;7.68;;;6.43;;
76714;SDS011;65644;44.990;20.288;2023-05-07T02:27:44;7.78;;;5.65;;
76714;SDS011;65644;44.990;20.288;2023-05-07T02:30:10;8.48;;;5.95;;
76714;SDS011;65644;44.990;20.288;2023-05-07T02:32:36;6.85;;;6.03;;
76714;SDS011;65644;44.990;20.288;2023-05-07T02:35:02;6.25;;;5.63;;
76714;SDS011;65644;44.990;20.288;2023-05-07T02:37:28;7.03;;;5.53;;
76714;SDS011;65644;44.990;20.288;2023-05-07T02:39:54;9.57;;;5.97;;
76714;SDS011;65644;44.990;20.288;2023-05-07T02:42:20;8.77;;;5.97;;
76714;SDS011;65644;44.990;20.288;2023-05-07T02:44:46;6.10;;;5.50;;
76714;SDS011;65644;44.990;20.288;2023-05-07T02:47:13;8.52;;;6.03;;
76714;SDS011;65644;44.990;20.288;2023-05-07T02:49:40;7.15;;;6.25;;
76714;SDS011;65644;44.990;20.288;2023-05-07T02:52:06;7.57;;;6.78;;
76714;SDS011;65644;44.990;20.288;2023-05-07T02:54:32;8.43;;;6.10;;
76714;SDS011;65644;44.990;20.288;2023-05-07T02:56:58;7.57;;;6.28;;
76714;SDS011;65644;44.990;20.288;2023-05-07T02:59:26;6.32;;;5.65;;
76714;SDS011;65644;44.990;20.288;2023-05-07T03:01:52;8.93;;;6.30;;
76714;SDS011;65644;44.990;20.288;2023-05-07T03:04:18;9.35;;;6.25;;
76714;SDS011;65644;44.990;20.288;2023-05-07T03:06:44;8.35;;;6.30;;
76714;SDS011;65644;44.990;20.288;2023-05-07T03:09:10;7.97;;;6.00;;
76714;SDS011;65644;44.990;20.288;2023-05-07T03:11:36;8.73;;;6.38;;
76714;SDS011;65644;44.990;20.288;2023-05-07T03:14:02;8.07;;;6.40;;
76714;SDS011;65644;44.990;20.288;2023-05-07T03:16:28;9.00;;;6.57;;
76714;SDS011;65644;44.990;20.288;2023-05-07T03:18:55;7.45;;;6.07;;
76714;SDS011;65644;44.990;20.288;2023-05-07T03:21:21;7.72;;;6.15;;
76714;SDS011;65644;44.990;20.288;2023-05-07T03:23:47;8.18;;;6.15;;
76714;SDS011;65644;44.990;20.288;2023-05-07T03:26:13;11.18;;;6.95;;
76714;SDS011;65644;44.990;20.288;2023-05-07T03:28:39;9.43;;;6.28;;
76714;SDS011;65644;44.990;20.288;2023-05-07T03:31:05;8.57;;;6.70;;
76714;SDS011;65644;44.990;20.288;2023-05-07T03:33:32;7.75;;;6.43;;
76714;SDS011;65644;44.990;20.288;2023-05-07T03:35:59;7.63;;;6.90;;
76714;SDS011;65644;44.990;20.288;2023-05-07T03:38:25;8.88;;;7.03;;
76714;SDS011;65644;44.990;20.288;2023-05-07T03:40:51;7.90;;;6.80;;
76714;SDS011;65644;44.990;20.288;2023-05-07T03:43:17;9.95;;;7.22;;
76714;SDS011;65644;44.990;20.288;2023-05-07T03:45:43;9.75;;;7.55;;
76714;SDS011;65644;44.990;20.288;2023-05-07T03:48:09;9.25;;;7.47;;
76714;SDS011;65644;44.990;20.288;2023-05-07T03:50:35;8.73;;;6.70;;
76714;SDS011;65644;44.990;20.288;2023-05-07T03:53:01;9.63;;;7.13;;
76714;SDS011;65644;44.990;20.288;2023-05-07T03:55:27;9.32;;;7.10;;
76714;SDS011;65644;44.990;20.288;2023-05-07T03:57:54;7.80;;;6.40;;
76714;SDS011;65644;44.990;20.288;2023-05-07T04:00:21;9.15;;;6.90;;
76714;SDS011;65644;44.990;20.288;2023-05-07T04:02:47;8.63;;;6.80;;
76714;SDS011;65644;44.990;20.288;2023-05-07T04:05:14;7.55;;;6.70;;
76714;SDS011;65644;44.990;20.288;2023-05-07T04:07:40;7.72;;;6.53;;
76714;SDS011;65644;44.990;20.288;2023-05-07T04:10:06;7.35;;;6.63;;
76714;SDS011;65644;44.990;20.288;2023-05-07T04:12:33;9.55;;;7.05;;
76714;SDS011;65644;44.990;20.288;2023-05-07T04:14:59;10.38;;;7.28;;
76714;SDS011;65644;44.990;20.288;2023-05-07T04:17:25;8.60;;;6.80;;
76714;SDS011;65644;44.990;20.288;2023-05-07T04:19:51;8.43;;;6.55;;
76714;SDS011;65644;44.990;20.288;2023-05-07T04:22:17;9.18;;;6.28;;
76714;SDS011;65644;44.990;20.288;2023-05-07T04:24:43;8.50;;;7.45;;
76714;SDS011;65644;44.990;20.288;2023-05-07T04:27:09;9.68;;;6.43;;
76714;SDS011;65644;44.990;20.288;2023-05-07T04:29:35;7.43;;;6.15;;
76714;SDS011;65644;44.990;20.288;2023-05-07T04:32:01;7.60;;;6.15;;
76714;SDS011;65644;44.990;20.288;2023-05-07T04:34:27;10.02;;;6.47;;
76714;SDS011;65644;44.990;20.288;2023-05-07T04:36:53;8.65;;;6.85;;
76714;SDS011;65644;44.990;20.288;2023-05-07T04:39:19;10.73;;;6.88;;
76714;SDS011;65644;44.990;20.288;2023-05-07T04:41:45;7.47;;;6.65;;
76714;SDS011;65644;44.990;20.288;2023-05-07T04:44:11;14.00;;;7.72;;
76714;SDS011;65644;44.990;20.288;2023-05-07T04:46:38;9.68;;;6.70;;
76714;SDS011;65644;44.990;20.288;2023-05-07T04:49:04;8.73;;;6.93;;
76714;SDS011;65644;44.990;20.288;2023-05-07T04:51:30;9.63;;;7.30;;
76714;SDS011;65644;44.990;20.288;2023-05-07T04:53:57;8.27;;;6.80;;
76714;SDS011;65644;44.990;20.288;2023-05-07T04:56:23;8.73;;;6.10;;
76714;SDS011;65644;44.990;20.288;2023-05-07T04:58:49;8.63;;;6.65;;
76714;SDS011;65644;44.990;20.288;2023-05-07T05:01:16;7.53;;;6.43;;
76714;SDS011;65644;44.990;20.288;2023-05-07T05:03:42;9.10;;;6.50;;
76714;SDS011;65644;44.990;20.288;2023-05-07T05:06:08;7.97;;;6.85;;
76714;SDS011;65644;44.990;20.288;2023-05-07T05:08:34;11.15;;;6.63;;
76714;SDS011;65644;44.990;20.288;2023-05-07T05:11:00;9.68;;;7.07;;
76714;SDS011;65644;44.990;20.288;2023-05-07T05:13:27;15.45;;;8.50;;
76714;SDS011;65644;44.990;20.288;2023-05-07T05:15:53;11.32;;;8.15;;
76714;SDS011;65644;44.990;20.288;2023-05-07T05:18:19;11.70;;;8.40;;
76714;SDS011;65644;44.990;20.288;2023-05-07T05:20:45;11.32;;;7.97;;
76714;SDS011;65644;44.990;20.288;2023-05-07T05:23:11;18.08;;;9.55;;
76714;SDS011;65644;44.990;20.288;2023-05-07T05:25:37;16.35;;;9.05;;
76714;SDS011;65644;44.990;20.288;2023-05-07T05:28:05;13.68;;;8.35;;
76714;SDS011;65644;44.990;20.288;2023-05-07T05:30:31;19.38;;;10.50;;
76714;SDS011;65644;44.990;20.288;2023-05-07T05:32:57;22.17;;;11.73;;
76714;SDS011;65644;44.990;20.288;2023-05-07T05:35:23;13.63;;;7.68;;
76714;SDS011;65644;44.990;20.288;2023-05-07T05:37:49;18.55;;;10.15;;
76714;SDS011;65644;44.990;20.288;2023-05-07T05:40:15;9.30;;;7.32;;
76714;SDS011;65644;44.990;20.288;2023-05-07T05:42:41;12.77;;;8.85;;
76714;SDS011;65644;44.990;20.288;2023-05-07T05:45:07;19.15;;;10.60;;
76714;SDS011;65644;44.990;20.288;2023-05-07T05:47:33;14.15;;;8.00;;
76714;SDS011;65644;44.990;20.288;2023-05-07T05:49:59;22.17;;;10.65;;
76714;SDS011;65644;44.990;20.288;2023-05-07T05:52:25;10.05;;;7.32;;
76714;SDS011;65644;44.990;20.288;2023-05-07T05:54:51;12.10;;;7.38;;
76714;SDS011;65644;44.990;20.288;2023-05-07T05:57:17;7.22;;;5.63;;
76714;SDS011;65644;44.990;20.288;2023-05-07T05:59:44;17.38;;;9.43;;
76714;SDS011;65644;44.990;20.288;2023-05-07T06:02:10;17.30;;;9.63;;
76714;SDS011;65644;44.990;20.288;2023-05-07T06:04:36;21.95;;;10.38;;
76714;SDS011;65644;44.990;20.288;2023-05-07T06:07:02;20.42;;;9.63;;
76714;SDS011;65644;44.990;20.288;2023-05-07T06:09:28;17.65;;;9.15;;
76714;SDS011;65644;44.990;20.288;2023-05-07T06:11:54;22.92;;;10.00;;
76714;SDS011;65644;44.990;20.288;2023-05-07T06:14:20;15.45;;;8.30;;
76714;SDS011;65644;44.990;20.288;2023-05-07T06:16:46;25.58;;;10.30;;
76714;SDS011;65644;44.990;20.288;2023-05-07T06:19:13;17.17;;;8.40;;
76714;SDS011;65644;44.990;20.288;2023-05-07T06:21:39;17.23;;;8.38;;
76714;SDS011;65644;44.990;20.288;2023-05-07T06:24:05;12.38;;;7.03;;
76714;SDS011;65644;44.990;20.288;2023-05-07T06:26:31;10.15;;;6.07;;
76714;SDS011;65644;44.990;20.288;2023-05-07T06:28:57;10.73;;;7.10;;
76714;SDS011;65644;44.990;20.288;2023-05-07T06:31:28;10.07;;;6.07;;
76714;SDS011;65644;44.990;20.288;2023-05-07T06:33:55;14.98;;;8.07;;
76714;SDS011;65644;44.990;20.288;2023-05-07T06:36:21;20.73;;;9.07;;
76714;SDS011;65644;44.990;20.288;2023-05-07T06:38:47;14.77;;;8.15;;
76714;SDS011;65644;44.990;20.288;2023-05-07T06:41:13;21.38;;;9.65;;
76714;SDS011;65644;44.990;20.288;2023-05-07T06:43:39;10.00;;;5.90;;
76714;SDS011;65644;44.990;20.288;2023-05-07T06:46:05;19.80;;;9.73;;
76714;SDS011;65644;44.990;20.288;2023-05-07T06:48:31;13.13;;;6.28;;
76714;SDS011;65644;44.990;20.288;2023-05-07T06:50:57;13.25;;;7.10;;
76714;SDS011;65644;44.990;20.288;2023-05-07T06:53:23;17.25;;;8.27;;
76714;SDS011;65644;44.990;20.288;2023-05-07T06:55:50;8.13;;;4.85;;
76714;SDS011;65644;44.990;20.288;2023-05-07T06:58:17;8.30;;;5.40;;
76714;SDS011;65644;44.990;20.288;2023-05-07T07:00:43;22.33;;;9.35;;
76714;SDS011;65644;44.990;20.288;2023-05-07T07:03:09;18.65;;;9.18;;
76714;SDS011;65644;44.990;20.288;2023-05-07T07:05:35;17.75;;;7.75;;
76714;SDS011;65644;44.990;20.288;2023-05-07T07:08:01;16.08;;;6.45;;
76714;SDS011;65644;44.990;20.288;2023-05-07T07:10:29;25.58;;;9.15;;
76714;SDS011;65644;44.990;20.288;2023-05-07T07:12:55;45.92;;;15.25;;
76714;SDS011;65644;44.990;20.288;2023-05-07T07:15:21;31.20;;;10.30;;
76714;SDS011;65644;44.990;20.288;2023-05-07T07:17:47;17.98;;;6.15;;
76714;SDS011;65644;44.990;20.288;2023-05-07T07:20:14;21.85;;;8.30;;
76714;SDS011;65644;44.990;20.288;2023-05-07T07:22:40;8.10;;;4.15;;
76714;SDS011;65644;44.990;20.288;2023-05-07T07:25:06;17.02;;;6.78;;
76714;SDS011;65644;44.990;20.288;2023-05-07T07:27:32;34.63;;;13.32;;
76714;SDS011;65644;44.990;20.288;2023-05-07T07:29:58;13.32;;;7.10;;
76714;SDS011;65644;44.990;20.288;2023-05-07T07:32:24;17.58;;;7.20;;
76714;SDS011;65644;44.990;20.288;2023-05-07T07:34:50;28.27;;;10.35;;
76714;SDS011;65644;44.990;20.288;2023-05-07T07:37:17;25.10;;;9.52;;
76714;SDS011;65644;44.990;20.288;2023-05-07T07:39:43;14.18;;;6.50;;
76714;SDS011;65644;44.990;20.288;2023-05-07T07:42:09;13.90;;;5.60;;
76714;SDS011;65644;44.990;20.288;2023-05-07T07:44:35;7.07;;;4.05;;
76714;SDS011;65644;44.990;20.288;2023-05-07T07:47:01;5.70;;;4.07;;
76714;SDS011;65644;44.990;20.288;2023-05-07T07:49:27;11.98;;;6.32;;
76714;SDS011;65644;44.990;20.288;2023-05-07T07:51:53;5.32;;;3.55;;
76714;SDS011;65644;44.990;20.288;2023-05-07T07:54:19;17.70;;;8.13;;
76714;SDS011;65644;44.990;20.288;2023-05-07T07:56:45;13.25;;;5.90;;
76714;SDS011;65644;44.990;20.288;2023-05-07T07:59:11;5.15;;;3.03;;
76714;SDS011;65644;44.990;20.288;2023-05-07T08:01:39;8.77;;;3.65;;
76714;SDS011;65644;44.990;20.288;2023-05-07T08:04:05;7.50;;;4.90;;
76714;SDS011;65644;44.990;20.288;2023-05-07T08:06:32;6.45;;;4.68;;
76714;SDS011;65644;44.990;20.288;2023-05-07T08:08:59;9.18;;;5.03;;
76714;SDS011;65644;44.990;20.288;2023-05-07T08:11:25;4.05;;;3.47;;
76714;SDS011;65644;44.990;20.288;2023-05-07T08:13:51;3.67;;;2.92;;
76714;SDS011;65644;44.990;20.288;2023-05-07T08:16:17;6.63;;;2.97;;
76714;SDS011;65644;44.990;20.288;2023-05-07T08:18:43;6.03;;;3.08;;
76714;SDS011;65644;44.990;20.288;2023-05-07T08:21:09;3.53;;;2.65;;
76714;SDS011;65644;44.990;20.288;2023-05-07T08:23:35;3.97;;;2.83;;
76714;SDS011;65644;44.990;20.288;2023-05-07T08:26:01;4.03;;;3.35;;
76714;SDS011;65644;44.990;20.288;2023-05-07T08:28:27;3.13;;;2.60;;
76714;SDS011;65644;44.990;20.288;2023-05-07T08:30:53;4.20;;;2.75;;
76714;SDS011;65644;44.990;20.288;2023-05-07T08:33:21;3.25;;;2.78;;
76714;SDS011;65644;44.990;20.288;2023-05-07T08:35:47;4.70;;;3.25;;
76714;SDS011;65644;44.990;20.288;2023-05-07T08:38:13;6.60;;;3.03;;
76714;SDS011;65644;44.990;20.288;2023-05-07T08:40:40;3.08;;;2.65;;
76714;SDS011;65644;44.990;20.288;2023-05-07T08:43:06;3.13;;;2.38;;
76714;SDS011;65644;44.990;20.288;2023-05-07T08:45:32;2.72;;;2.50;;
76714;SDS011;65644;44.990;20.288;2023-05-07T08:47:59;5.28;;;3.35;;
76714;SDS011;65644;44.990;20.288;2023-05-07T08:50:27;3.45;;;2.47;;
76714;SDS011;65644;44.990;20.288;2023-05-07T08:52:53;5.63;;;2.60;;
76714;SDS011;65644;44.990;20.288;2023-05-07T08:55:20;2.70;;;2.50;;
76714;SDS011;65644;44.990;20.288;2023-05-07T08:57:46;3.42;;;2.35;;
76714;SDS011;65644;44.990;20.288;2023-05-07T09:00:13;2.38;;;2.17;;
76714;SDS011;65644;44.990;20.288;2023-05-07T09:02:39;5.68;;;2.60;;
76714;SDS011;65644;44.990;20.288;2023-05-07T09:05:05;3.50;;;2.58;;
76714;SDS011;65644;44.990;20.288;2023-05-07T09:07:32;5.07;;;3.00;;
76714;SDS011;65644;44.990;20.288;2023-05-07T09:09:58;4.60;;;2.67;;
76714;SDS011;65644;44.990;20.288;2023-05-07T09:12:24;4.15;;;2.38;;
76714;SDS011;65644;44.990;20.288;2023-05-07T09:14:50;3.63;;;2.38;;
76714;SDS011;65644;44.990;20.288;2023-05-07T09:17:16;2.47;;;2.33;;
76714;SDS011;65644;44.990;20.288;2023-05-07T09:19:43;2.38;;;2.13;;
76714;SDS011;65644;44.990;20.288;2023-05-07T09:22:10;3.28;;;2.97;;
76714;SDS011;65644;44.990;20.288;2023-05-07T09:24:36;4.47;;;2.72;;
76714;SDS011;65644;44.990;20.288;2023-05-07T09:27:06;3.08;;;2.60;;
76714;SDS011;65644;44.990;20.288;2023-05-07T09:29:33;5.88;;;4.00;;
76714;SDS011;65644;44.990;20.288;2023-05-07T09:32:03;5.50;;;3.53;;
76714;SDS011;65644;44.990;20.288;2023-05-07T09:34:29;4.53;;;2.70;;
76714;SDS011;65644;44.990;20.288;2023-05-07T09:36:55;2.83;;;2.45;;
76714;SDS011;65644;44.990;20.288;2023-05-07T09:39:25;4.78;;;2.35;;
76714;SDS011;65644;44.990;20.288;2023-05-07T09:41:51;3.67;;;2.58;;
76714;SDS011;65644;44.990;20.288;2023-05-07T09:44:20;2.60;;;2.40;;
76714;SDS011;65644;44.990;20.288;2023-05-07T09:46:46;3.55;;;2.90;;
76714;SDS011;65644;44.990;20.288;2023-05-07T09:49:20;4.50;;;2.40;;
76714;SDS011;65644;44.990;20.288;2023-05-07T09:51:50;2.40;;;2.20;;
76714;SDS011;65644;44.990;20.288;2023-05-07T09:54:16;4.40;;;2.35;;
76714;SDS011;65644;44.990;20.288;2023-05-07T09:56:43;5.45;;;2.17;;
76714;SDS011;65644;44.990;20.288;2023-05-07T09:59:10;3.00;;;2.78;;
76714;SDS011;65644;44.990;20.288;2023-05-07T10:01:38;5.25;;;2.67;;
76714;SDS011;65644;44.990;20.288;2023-05-07T10:04:05;6.30;;;2.83;;
76714;SDS011;65644;44.990;20.288;2023-05-07T10:06:33;3.28;;;2.97;;
76714;SDS011;65644;44.990;20.288;2023-05-07T10:09:00;2.70;;;2.33;;
76714;SDS011;65644;44.990;20.288;2023-05-07T10:11:26;2.50;;;2.30;;
76714;SDS011;65644;44.990;20.288;2023-05-07T10:13:52;3.55;;;2.63;;
76714;SDS011;65644;44.990;20.288;2023-05-07T10:16:18;4.07;;;2.20;;
76714;SDS011;65644;44.990;20.288;2023-05-07T10:18:45;4.40;;;2.70;;
76714;SDS011;65644;44.990;20.288;2023-05-07T10:21:19;4.05;;;2.38;;
76714;SDS011;65644;44.990;20.288;2023-05-07T10:23:45;3.07;;;2.43;;
76714;SDS011;65644;44.990;20.288;2023-05-07T10:26:14;4.20;;;2.40;;
76714;SDS011;65644;44.990;20.288;2023-05-07T10:28:42;4.00;;;2.95;;
76714;SDS011;65644;44.990;20.288;2023-05-07T10:31:15;4.75;;;2.40;;
76714;SDS011;65644;44.990;20.288;2023-05-07T10:33:44;3.80;;;2.55;;
76714;SDS011;65644;44.990;20.288;2023-05-07T10:36:12;2.45;;;2.22;;
76714;SDS011;65644;44.990;20.288;2023-05-07T10:38:38;3.20;;;2.80;;
76714;SDS011;65644;44.990;20.288;2023-05-07T10:41:05;3.90;;;2.53;;
76714;SDS011;65644;44.990;20.288;2023-05-07T10:43:41;3.28;;;2.80;;
76714;SDS011;65644;44.990;20.288;2023-05-07T10:46:11;2.65;;;2.33;;
76714;SDS011;65644;44.990;20.288;2023-05-07T10:51:22;6.47;;;3.58;;
76714;SDS011;65644;44.990;20.288;2023-05-07T10:53:48;8.77;;;3.80;;
76714;SDS011;65644;44.990;20.288;2023-05-07T10:58:43;12.02;;;5.22;;
76714;SDS011;65644;44.990;20.288;2023-05-07T11:01:09;3.35;;;2.58;;
76714;SDS011;65644;44.990;20.288;2023-05-07T11:03:37;9.90;;;4.03;;
76714;SDS011;65644;44.990;20.288;2023-05-07T11:06:23;5.05;;;3.03;;
76714;SDS011;65644;44.990;20.288;2023-05-07T11:08:54;4.47;;;2.08;;
76714;SDS011;65644;44.990;20.288;2023-05-07T11:11:43;2.97;;;2.17;;
76714;SDS011;65644;44.990;20.288;2023-05-07T11:14:06;3.67;;;3.13;;
76714;SDS011;65644;44.990;20.288;2023-05-07T11:16:32;3.20;;;2.10;;
76714;SDS011;65644;44.990;20.288;2023-05-07T11:19:01;2.83;;;2.25;;
76714;SDS011;65644;44.990;20.288;2023-05-07T11:21:31;2.85;;;2.30;;
76714;SDS011;65644;44.990;20.288;2023-05-07T11:23:58;4.53;;;2.20;;
76714;SDS011;65644;44.990;20.288;2023-05-07T11:26:25;2.72;;;1.92;;
76714;SDS011;65644;44.990;20.288;2023-05-07T11:28:52;3.70;;;2.42;;
76714;SDS011;65644;44.990;20.288;2023-05-07T11:31:23;3.40;;;1.92;;
76714;SDS011;65644;44.990;20.288;2023-05-07T11:33:49;2.13;;;1.92;;
76714;SDS011;65644;44.990;20.288;2023-05-07T11:36:16;1.95;;;1.73;;
76714;SDS011;65644;44.990;20.288;2023-05-07T11:38:42;5.78;;;2.38;;
76714;SDS011;65644;44.990;20.288;2023-05-07T11:41:08;3.95;;;2.17;;
76714;SDS011;65644;44.990;20.288;2023-05-07T11:43:34;2.80;;;1.92;;
76714;SDS011;65644;44.990;20.288;2023-05-07T11:46:07;2.50;;;1.50;;
76714;SDS011;65644;44.990;20.288;2023-05-07T11:48:34;5.40;;;1.65;;
76714;SDS011;65644;44.990;20.288;2023-05-07T11:51:01;3.10;;;1.65;;
76714;SDS011;65644;44.990;20.288;2023-05-07T11:53:28;4.22;;;2.10;;
76714;SDS011;65644;44.990;20.288;2023-05-07T11:56:00;2.10;;;1.85;;
76714;SDS011;65644;44.990;20.288;2023-05-07T11:58:26;2.67;;;2.10;;
76714;SDS011;65644;44.990;20.288;2023-05-07T12:00:53;2.20;;;2.00;;
76714;SDS011;65644;44.990;20.288;2023-05-07T12:03:21;4.72;;;2.08;;
76714;SDS011;65644;44.990;20.288;2023-05-07T12:05:47;3.05;;;1.88;;
76714;SDS011;65644;44.990;20.288;2023-05-07T12:08:17;4.18;;;1.70;;
76714;SDS011;65644;44.990;20.288;2023-05-07T12:10:43;2.35;;;1.30;;
76714;SDS011;65644;44.990;20.288;2023-05-07T12:15:42;3.08;;;1.58;;
76714;SDS011;65644;44.990;20.288;2023-05-07T12:18:08;2.00;;;1.90;;
76714;SDS011;65644;44.990;20.288;2023-05-07T12:20:35;3.83;;;1.70;;
76714;SDS011;65644;44.990;20.288;2023-05-07T12:23:01;3.17;;;2.08;;
76714;SDS011;65644;44.990;20.288;2023-05-07T12:25:31;3.58;;;1.90;;
76714;SDS011;65644;44.990;20.288;2023-05-07T12:27:57;2.08;;;1.65;;
76714;SDS011;65644;44.990;20.288;2023-05-07T12:30:25;2.13;;;1.90;;
76714;SDS011;65644;44.990;20.288;2023-05-07T12:32:54;3.42;;;1.83;;
76714;SDS011;65644;44.990;20.288;2023-05-07T12:35:37;1.73;;;1.63;;
76714;SDS011;65644;44.990;20.288;2023-05-07T12:38:07;2.17;;;1.47;;
76714;SDS011;65644;44.990;20.288;2023-05-07T12:43:42;2.22;;;1.40;;
76714;SDS011;65644;44.990;20.288;2023-05-07T12:46:03;3.30;;;1.60;;
76714;SDS011;65644;44.990;20.288;2023-05-07T12:48:29;2.33;;;1.42;;
76714;SDS011;65644;44.990;20.288;2023-05-07T12:50:56;0.88;;;0.88;;
76714;SDS011;65644;44.990;20.288;2023-05-07T12:53:23;2.65;;;1.20;;
76714;SDS011;65644;44.990;20.288;2023-05-07T12:55:51;3.78;;;1.20;;
76714;SDS011;65644;44.990;20.288;2023-05-07T12:58:18;2.63;;;1.45;;
76714;SDS011;65644;44.990;20.288;2023-05-07T13:00:45;2.95;;;1.40;;
76714;SDS011;65644;44.990;20.288;2023-05-07T13:03:15;2.17;;;1.50;;
76714;SDS011;65644;44.990;20.288;2023-05-07T13:05:46;1.50;;;1.20;;
76714;SDS011;65644;44.990;20.288;2023-05-07T13:08:12;1.55;;;1.42;;
76714;SDS011;65644;44.990;20.288;2023-05-07T13:10:38;2.42;;;1.40;;
76714;SDS011;65644;44.990;20.288;2023-05-07T13:13:04;2.13;;;1.52;;
76714;SDS011;65644;44.990;20.288;2023-05-07T13:15:30;5.00;;;1.48;;
76714;SDS011;65644;44.990;20.288;2023-05-07T13:17:56;6.22;;;1.23;;
76714;SDS011;65644;44.990;20.288;2023-05-07T13:20:22;1.13;;;1.02;;
76714;SDS011;65644;44.990;20.288;2023-05-07T13:22:49;6.45;;;1.73;;
76714;SDS011;65644;44.990;20.288;2023-05-07T13:25:15;3.22;;;1.50;;
76714;SDS011;65644;44.990;20.288;2023-05-07T13:27:41;2.17;;;1.70;;
76714;SDS011;65644;44.990;20.288;2023-05-07T13:30:07;14.15;;;2.05;;
76714;SDS011;65644;44.990;20.288;2023-05-07T13:32:33;4.18;;;2.10;;
76714;SDS011;65644;44.990;20.288;2023-05-07T13:35:00;4.13;;;2.30;;
76714;SDS011;65644;44.990;20.288;2023-05-07T13:37:26;3.75;;;1.75;;
76714;SDS011;65644;44.990;20.288;2023-05-07T13:39:52;3.33;;;1.77;;
76714;SDS011;65644;44.990;20.288;2023-05-07T13:42:18;5.47;;;4.00;;
76714;SDS011;65644;44.990;20.288;2023-05-07T13:44:44;3.13;;;2.45;;
76714;SDS011;65644;44.990;20.288;2023-05-07T13:47:11;1.65;;;1.52;;
76714;SDS011;65644;44.990;20.288;2023-05-07T13:49:37;3.80;;;2.53;;
76714;SDS011;65644;44.990;20.288;2023-05-07T13:52:03;6.32;;;3.78;;
76714;SDS011;65644;44.990;20.288;2023-05-07T13:54:29;4.13;;;2.03;;
76714;SDS011;65644;44.990;20.288;2023-05-07T13:56:55;8.77;;;2.70;;
76714;SDS011;65644;44.990;20.288;2023-05-07T13:59:21;3.53;;;2.33;;
76714;SDS011;65644;44.990;20.288;2023-05-07T14:01:47;1.92;;;1.60;;
76714;SDS011;65644;44.990;20.288;2023-05-07T14:04:13;5.13;;;1.40;;
76714;SDS011;65644;44.990;20.288;2023-05-07T14:06:39;6.05;;;2.55;;
76714;SDS011;65644;44.990;20.288;2023-05-07T14:09:05;2.83;;;1.95;;
76714;SDS011;65644;44.990;20.288;2023-05-07T14:11:31;2.83;;;1.63;;
76714;SDS011;65644;44.990;20.288;2023-05-07T14:13:58;2.17;;;1.45;;
76714;SDS011;65644;44.990;20.288;2023-05-07T14:16:24;2.17;;;1.25;;
76714;SDS011;65644;44.990;20.288;2023-05-07T14:18:50;3.58;;;1.95;;
76714;SDS011;65644;44.990;20.288;2023-05-07T14:21:16;1.60;;;1.35;;
76714;SDS011;65644;44.990;20.288;2023-05-07T14:23:42;1.73;;;1.33;;
76714;SDS011;65644;44.990;20.288;2023-05-07T14:26:08;2.03;;;1.42;;
76714;SDS011;65644;44.990;20.288;2023-05-07T14:28:34;2.33;;;1.35;;
76714;SDS011;65644;44.990;20.288;2023-05-07T14:31:00;2.78;;;1.77;;
76714;SDS011;65644;44.990;20.288;2023-05-07T14:33:26;3.08;;;1.67;;
76714;SDS011;65644;44.990;20.288;2023-05-07T14:35:52;3.38;;;1.27;;
76714;SDS011;65644;44.990;20.288;2023-05-07T14:38:18;1.45;;;1.33;;